sensor_id;sensor_type;location;lat;lon;timestamp;temperature;humidity
46890;DHT22;32625;51.080;16.970;2022-09-25T00:01:12;8.10;99.90
46890;DHT22;32625;51.080;16.970;2022-09-25T00:03:40;8.00;99.90
46890;DHT22;32625;51.080;16.970;2022-09-25T00:06:28;8.00;99.90
46890;DHT22;32625;51.080;16.970;2022-09-25T00:08:56;8.00;99.90
46890;DHT22;32625;51.080;16.970;2022-09-25T00:11:26;8.00;99.90
46890;DHT22;32625;51.080;16.970;2022-09-25T00:13:54;8.00;99.90
46890;DHT22;32625;51.080;16.970;2022-09-25T00:16:25;8.00;99.90
46890;DHT22;32625;51.080;16.970;2022-09-25T00:18:54;8.10;99.90
46890;DHT22;32625;51.080;16.970;2022-09-25T00:21:40;8.00;99.90
46890;DHT22;32625;51.080;16.970;2022-09-25T00:24:09;8.00;99.90
46890;DHT22;32625;51.080;16.970;2022-09-25T00:26:39;8.00;99.90
46890;DHT22;32625;51.080;16.970;2022-09-25T00:29:09;8.00;99.90
46890;DHT22;32625;51.080;16.970;2022-09-25T00:31:39;8.00;99.90
46890;DHT22;32625;51.080;16.970;2022-09-25T00:34:06;8.00;99.90
46890;DHT22;32625;51.080;16.970;2022-09-25T00:36:34;7.90;99.90
46890;DHT22;32625;51.080;16.970;2022-09-25T00:39:01;7.90;99.90
46890;DHT22;32625;51.080;16.970;2022-09-25T00:41:29;7.90;99.90
46890;DHT22;32625;51.080;16.970;2022-09-25T00:44:00;7.80;99.90
46890;DHT22;32625;51.080;16.970;2022-09-25T00:46:37;7.80;99.90
46890;DHT22;32625;51.080;16.970;2022-09-25T00:49:12;7.80;99.90
46890;DHT22;32625;51.080;16.970;2022-09-25T00:54:22;7.90;99.90
46890;DHT22;32625;51.080;16.970;2022-09-25T00:56:51;7.80;99.90
46890;DHT22;32625;51.080;16.970;2022-09-25T00:59:22;7.80;99.90
46890;DHT22;32625;51.080;16.970;2022-09-25T01:01:53;7.80;99.90
46890;DHT22;32625;51.080;16.970;2022-09-25T01:04:21;7.80;99.90
46890;DHT22;32625;51.080;16.970;2022-09-25T01:06:49;7.80;99.90
46890;DHT22;32625;51.080;16.970;2022-09-25T01:09:16;7.70;99.90
46890;DHT22;32625;51.080;16.970;2022-09-25T01:11:44;7.70;99.90
46890;DHT22;32625;51.080;16.970;2022-09-25T01:14:12;7.70;99.90
46890;DHT22;32625;51.080;16.970;2022-09-25T01:17:00;7.70;99.90
46890;DHT22;32625;51.080;16.970;2022-09-25T01:22:04;7.60;99.90
46890;DHT22;32625;51.080;16.970;2022-09-25T01:24:54;7.80;99.90
46890;DHT22;32625;51.080;16.970;2022-09-25T01:27:34;7.70;99.90
46890;DHT22;32625;51.080;16.970;2022-09-25T01:38:15;7.70;99.90
46890;DHT22;32625;51.080;16.970;2022-09-25T01:43:55;7.70;99.90
46890;DHT22;32625;51.080;16.970;2022-09-25T01:46:28;7.70;99.90
46890;DHT22;32625;51.080;16.970;2022-09-25T01:49:07;7.80;99.90
46890;DHT22;32625;51.080;16.970;2022-09-25T01:51:42;7.70;99.90
46890;DHT22;32625;51.080;16.970;2022-09-25T01:54:15;7.70;99.90
46890;DHT22;32625;51.080;16.970;2022-09-25T01:56:57;7.70;99.90
46890;DHT22;32625;51.080;16.970;2022-09-25T01:59:29;7.80;99.90
46890;DHT22;32625;51.080;16.970;2022-09-25T02:02:00;7.70;99.90
46890;DHT22;32625;51.080;16.970;2022-09-25T02:04:36;7.70;99.90
46890;DHT22;32625;51.080;16.970;2022-09-25T02:07:07;7.70;99.90
46890;DHT22;32625;51.080;16.970;2022-09-25T02:09:57;7.60;99.90
46890;DHT22;32625;51.080;16.970;2022-09-25T02:12:33;7.60;99.90
46890;DHT22;32625;51.080;16.970;2022-09-25T02:15:12;7.60;99.90
46890;DHT22;32625;51.080;16.970;2022-09-25T02:20:39;7.50;99.90
46890;DHT22;32625;51.080;16.970;2022-09-25T02:23:20;7.60;99.90
46890;DHT22;32625;51.080;16.970;2022-09-25T02:28:28;7.50;99.90
46890;DHT22;32625;51.080;16.970;2022-09-25T02:30:56;7.50;99.90
46890;DHT22;32625;51.080;16.970;2022-09-25T02:33:25;7.40;99.90
46890;DHT22;32625;51.080;16.970;2022-09-25T02:35:53;7.50;99.90
46890;DHT22;32625;51.080;16.970;2022-09-25T02:38:20;7.50;99.90
46890;DHT22;32625;51.080;16.970;2022-09-25T02:40:55;7.50;99.90
46890;DHT22;32625;51.080;16.970;2022-09-25T02:53:00;7.50;99.90
46890;DHT22;32625;51.080;16.970;2022-09-25T02:55:40;7.40;99.90
46890;DHT22;32625;51.080;16.970;2022-09-25T03:00:43;7.30;99.90
46890;DHT22;32625;51.080;16.970;2022-09-25T03:03:16;7.30;99.90
46890;DHT22;32625;51.080;16.970;2022-09-25T03:05:46;7.30;99.90
46890;DHT22;32625;51.080;16.970;2022-09-25T03:08:15;7.40;99.90
46890;DHT22;32625;51.080;16.970;2022-09-25T03:11:01;7.40;99.90
46890;DHT22;32625;51.080;16.970;2022-09-25T03:13:29;7.40;99.90
46890;DHT22;32625;51.080;16.970;2022-09-25T03:16:09;7.30;99.90
46890;DHT22;32625;51.080;16.970;2022-09-25T03:18:38;7.30;99.90
46890;DHT22;32625;51.080;16.970;2022-09-25T03:21:05;7.30;99.90
46890;DHT22;32625;51.080;16.970;2022-09-25T03:23:32;7.30;99.90
46890;DHT22;32625;51.080;16.970;2022-09-25T03:25:59;7.20;99.90
46890;DHT22;32625;51.080;16.970;2022-09-25T03:28:26;7.20;99.90
46890;DHT22;32625;51.080;16.970;2022-09-25T03:31:04;7.20;99.90
46890;DHT22;32625;51.080;16.970;2022-09-25T03:33:37;7.20;99.90
46890;DHT22;32625;51.080;16.970;2022-09-25T03:36:21;7.20;99.90
46890;DHT22;32625;51.080;16.970;2022-09-25T03:38:51;7.20;99.90
46890;DHT22;32625;51.080;16.970;2022-09-25T03:41:20;7.30;99.90
46890;DHT22;32625;51.080;16.970;2022-09-25T03:43:49;7.30;99.90
46890;DHT22;32625;51.080;16.970;2022-09-25T03:46:20;7.20;99.90
46890;DHT22;32625;51.080;16.970;2022-09-25T03:48:48;7.20;99.90
46890;DHT22;32625;51.080;16.970;2022-09-25T03:51:16;7.20;99.90
46890;DHT22;32625;51.080;16.970;2022-09-25T03:53:43;7.10;99.90
46890;DHT22;32625;51.080;16.970;2022-09-25T03:56:20;7.10;99.90
46890;DHT22;32625;51.080;16.970;2022-09-25T03:58:48;7.10;99.90
46890;DHT22;32625;51.080;16.970;2022-09-25T04:01:16;7.00;99.90
46890;DHT22;32625;51.080;16.970;2022-09-25T04:03:45;7.00;99.90
46890;DHT22;32625;51.080;16.970;2022-09-25T04:06:15;7.00;99.90
46890;DHT22;32625;51.080;16.970;2022-09-25T04:08:45;7.00;99.90
46890;DHT22;32625;51.080;16.970;2022-09-25T04:11:15;6.90;99.90
46890;DHT22;32625;51.080;16.970;2022-09-25T04:13:42;6.90;99.90
46890;DHT22;32625;51.080;16.970;2022-09-25T04:16:12;6.90;99.90
46890;DHT22;32625;51.080;16.970;2022-09-25T04:18:39;7.00;99.90
46890;DHT22;32625;51.080;16.970;2022-09-25T04:21:11;7.00;99.90
46890;DHT22;32625;51.080;16.970;2022-09-25T04:23:39;6.90;99.90
46890;DHT22;32625;51.080;16.970;2022-09-25T04:26:07;7.00;99.90
46890;DHT22;32625;51.080;16.970;2022-09-25T04:28:35;6.90;99.90
46890;DHT22;32625;51.080;16.970;2022-09-25T04:31:02;6.90;99.90
46890;DHT22;32625;51.080;16.970;2022-09-25T04:33:30;6.90;99.90
46890;DHT22;32625;51.080;16.970;2022-09-25T04:36:15;6.90;99.90
46890;DHT22;32625;51.080;16.970;2022-09-25T04:38:42;6.90;99.90
46890;DHT22;32625;51.080;16.970;2022-09-25T04:41:10;6.70;99.90
46890;DHT22;32625;51.080;16.970;2022-09-25T04:43:37;6.60;99.90
46890;DHT22;32625;51.080;16.970;2022-09-25T04:46:08;6.70;99.90
46890;DHT22;32625;51.080;16.970;2022-09-25T04:48:45;6.70;99.90
46890;DHT22;32625;51.080;16.970;2022-09-25T04:51:12;6.70;99.90
46890;DHT22;32625;51.080;16.970;2022-09-25T04:53:39;6.70;99.90
46890;DHT22;32625;51.080;16.970;2022-09-25T04:56:08;6.80;99.90
46890;DHT22;32625;51.080;16.970;2022-09-25T04:58:46;6.70;99.90
46890;DHT22;32625;51.080;16.970;2022-09-25T05:01:15;6.80;99.90
46890;DHT22;32625;51.080;16.970;2022-09-25T05:03:43;6.70;99.90
46890;DHT22;32625;51.080;16.970;2022-09-25T05:06:10;6.80;99.90
46890;DHT22;32625;51.080;16.970;2022-09-25T05:08:37;6.80;99.90
46890;DHT22;32625;51.080;16.970;2022-09-25T05:11:04;6.80;99.90
46890;DHT22;32625;51.080;16.970;2022-09-25T05:13:31;6.80;99.90
46890;DHT22;32625;51.080;16.970;2022-09-25T05:15:58;6.70;99.90
46890;DHT22;32625;51.080;16.970;2022-09-25T05:18:26;6.70;99.90
46890;DHT22;32625;51.080;16.970;2022-09-25T05:20:53;6.80;99.90
46890;DHT22;32625;51.080;16.970;2022-09-25T05:23:21;6.80;99.90
46890;DHT22;32625;51.080;16.970;2022-09-25T05:25:55;6.70;99.90
46890;DHT22;32625;51.080;16.970;2022-09-25T05:28:29;6.70;99.90
46890;DHT22;32625;51.080;16.970;2022-09-25T05:31:01;6.80;99.90
46890;DHT22;32625;51.080;16.970;2022-09-25T05:33:33;6.90;99.90
46890;DHT22;32625;51.080;16.970;2022-09-25T05:36:02;6.90;99.90
46890;DHT22;32625;51.080;16.970;2022-09-25T05:38:34;6.90;99.90
46890;DHT22;32625;51.080;16.970;2022-09-25T05:41:04;6.90;99.90
46890;DHT22;32625;51.080;16.970;2022-09-25T05:43:32;7.00;99.90
46890;DHT22;32625;51.080;16.970;2022-09-25T05:46:00;7.00;99.90
46890;DHT22;32625;51.080;16.970;2022-09-25T05:48:27;7.10;99.90
46890;DHT22;32625;51.080;16.970;2022-09-25T05:50:56;7.10;99.90
46890;DHT22;32625;51.080;16.970;2022-09-25T05:53:24;7.20;99.90
46890;DHT22;32625;51.080;16.970;2022-09-25T05:55:56;7.30;99.90
46890;DHT22;32625;51.080;16.970;2022-09-25T05:58:28;7.40;99.90
46890;DHT22;32625;51.080;16.970;2022-09-25T06:01:02;6.90;99.90
46890;DHT22;32625;51.080;16.970;2022-09-25T06:03:30;7.60;99.90
46890;DHT22;32625;51.080;16.970;2022-09-25T06:05:58;7.70;99.90
46890;DHT22;32625;51.080;16.970;2022-09-25T06:08:26;7.80;99.90
46890;DHT22;32625;51.080;16.970;2022-09-25T06:10:58;7.90;99.90
46890;DHT22;32625;51.080;16.970;2022-09-25T06:13:25;8.00;99.90
46890;DHT22;32625;51.080;16.970;2022-09-25T06:15:53;8.10;99.90
46890;DHT22;32625;51.080;16.970;2022-09-25T06:18:22;8.20;99.90
46890;DHT22;32625;51.080;16.970;2022-09-25T06:20:50;8.20;99.90
46890;DHT22;32625;51.080;16.970;2022-09-25T06:23:18;8.30;99.90
46890;DHT22;32625;51.080;16.970;2022-09-25T06:25:45;8.40;99.90
46890;DHT22;32625;51.080;16.970;2022-09-25T06:28:12;8.40;99.90
46890;DHT22;32625;51.080;16.970;2022-09-25T06:30:39;8.50;99.90
46890;DHT22;32625;51.080;16.970;2022-09-25T06:33:09;8.60;99.90
46890;DHT22;32625;51.080;16.970;2022-09-25T06:35:42;8.70;99.90
46890;DHT22;32625;51.080;16.970;2022-09-25T06:38:11;8.70;99.90
46890;DHT22;32625;51.080;16.970;2022-09-25T06:40:38;8.80;99.90
46890;DHT22;32625;51.080;16.970;2022-09-25T06:43:12;8.90;99.90
46890;DHT22;32625;51.080;16.970;2022-09-25T06:45:40;9.00;99.90
46890;DHT22;32625;51.080;16.970;2022-09-25T06:48:12;9.00;99.90
46890;DHT22;32625;51.080;16.970;2022-09-25T06:50:50;9.10;99.90
46890;DHT22;32625;51.080;16.970;2022-09-25T06:53:19;9.10;99.90
46890;DHT22;32625;51.080;16.970;2022-09-25T06:55:46;9.20;99.90
46890;DHT22;32625;51.080;16.970;2022-09-25T06:58:21;9.30;99.90
46890;DHT22;32625;51.080;16.970;2022-09-25T07:00:51;9.20;99.90
46890;DHT22;32625;51.080;16.970;2022-09-25T07:03:18;9.40;99.90
46890;DHT22;32625;51.080;16.970;2022-09-25T07:06:06;9.50;99.90
46890;DHT22;32625;51.080;16.970;2022-09-25T07:08:33;9.60;99.90
46890;DHT22;32625;51.080;16.970;2022-09-25T07:11:01;9.60;99.90
46890;DHT22;32625;51.080;16.970;2022-09-25T07:13:31;9.70;99.90
46890;DHT22;32625;51.080;16.970;2022-09-25T07:16:01;9.70;99.90
46890;DHT22;32625;51.080;16.970;2022-09-25T07:18:29;9.80;99.90
46890;DHT22;32625;51.080;16.970;2022-09-25T07:21:03;9.90;99.90
46890;DHT22;32625;51.080;16.970;2022-09-25T07:23:30;10.00;99.90
46890;DHT22;32625;51.080;16.970;2022-09-25T07:28:33;10.20;99.90
46890;DHT22;32625;51.080;16.970;2022-09-25T07:31:21;10.20;99.90
46890;DHT22;32625;51.080;16.970;2022-09-25T07:33:48;10.30;99.90
46890;DHT22;32625;51.080;16.970;2022-09-25T07:36:17;10.50;99.90
46890;DHT22;32625;51.080;16.970;2022-09-25T07:38:48;10.50;99.90
46890;DHT22;32625;51.080;16.970;2022-09-25T07:41:17;10.60;99.90
46890;DHT22;32625;51.080;16.970;2022-09-25T07:43:44;10.70;99.90
46890;DHT22;32625;51.080;16.970;2022-09-25T07:46:12;10.70;99.90
46890;DHT22;32625;51.080;16.970;2022-09-25T07:48:39;10.80;99.90
46890;DHT22;32625;51.080;16.970;2022-09-25T07:51:09;10.80;99.90
46890;DHT22;32625;51.080;16.970;2022-09-25T07:53:38;11.00;99.90
46890;DHT22;32625;51.080;16.970;2022-09-25T07:56:05;11.10;99.90
46890;DHT22;32625;51.080;16.970;2022-09-25T07:58:33;11.20;99.90
46890;DHT22;32625;51.080;16.970;2022-09-25T08:01:06;11.40;99.90
46890;DHT22;32625;51.080;16.970;2022-09-25T08:03:33;11.40;99.90
46890;DHT22;32625;51.080;16.970;2022-09-25T08:06:05;11.50;99.90
46890;DHT22;32625;51.080;16.970;2022-09-25T08:08:34;11.50;99.90
46890;DHT22;32625;51.080;16.970;2022-09-25T08:11:03;11.50;99.90
46890;DHT22;32625;51.080;16.970;2022-09-25T08:13:33;11.70;99.90
46890;DHT22;32625;51.080;16.970;2022-09-25T08:16:02;11.70;99.90
46890;DHT22;32625;51.080;16.970;2022-09-25T08:18:29;11.90;99.90
46890;DHT22;32625;51.080;16.970;2022-09-25T08:21:01;11.90;99.90
46890;DHT22;32625;51.080;16.970;2022-09-25T08:23:29;11.90;99.90
46890;DHT22;32625;51.080;16.970;2022-09-25T08:25:57;12.00;99.90
46890;DHT22;32625;51.080;16.970;2022-09-25T08:28:24;12.10;99.90
46890;DHT22;32625;51.080;16.970;2022-09-25T08:30:51;12.20;99.90
46890;DHT22;32625;51.080;16.970;2022-09-25T08:33:20;12.30;99.90
46890;DHT22;32625;51.080;16.970;2022-09-25T08:35:58;12.40;99.90
46890;DHT22;32625;51.080;16.970;2022-09-25T08:38:27;12.50;99.90
46890;DHT22;32625;51.080;16.970;2022-09-25T08:41:15;12.70;99.90
46890;DHT22;32625;51.080;16.970;2022-09-25T08:43:56;12.70;99.90
46890;DHT22;32625;51.080;16.970;2022-09-25T08:49:32;13.00;99.90
46890;DHT22;32625;51.080;16.970;2022-09-25T08:52:04;13.00;99.90
46890;DHT22;32625;51.080;16.970;2022-09-25T08:54:34;13.10;99.90
46890;DHT22;32625;51.080;16.970;2022-09-25T08:59:48;13.00;99.90
46890;DHT22;32625;51.080;16.970;2022-09-25T09:02:20;13.00;99.90
46890;DHT22;32625;51.080;16.970;2022-09-25T09:04:52;13.10;99.90
46890;DHT22;32625;51.080;16.970;2022-09-25T09:07:24;13.10;99.90
46890;DHT22;32625;51.080;16.970;2022-09-25T09:12:45;13.20;99.90
46890;DHT22;32625;51.080;16.970;2022-09-25T09:18:24;13.50;99.90
46890;DHT22;32625;51.080;16.970;2022-09-25T09:21:05;13.70;99.90
46890;DHT22;32625;51.080;16.970;2022-09-25T09:51:22;14.20;99.90
46890;DHT22;32625;51.080;16.970;2022-09-25T09:54:14;14.40;99.90
46890;DHT22;32625;51.080;16.970;2022-09-25T09:56:44;14.40;99.90
46890;DHT22;32625;51.080;16.970;2022-09-25T09:59:15;14.40;99.90
46890;DHT22;32625;51.080;16.970;2022-09-25T10:01:57;14.40;99.90
46890;DHT22;32625;51.080;16.970;2022-09-25T10:04:32;14.40;99.90
46890;DHT22;32625;51.080;16.970;2022-09-25T10:07:14;14.60;99.90
46890;DHT22;32625;51.080;16.970;2022-09-25T10:09:44;14.70;99.90
46890;DHT22;32625;51.080;16.970;2022-09-25T10:12:27;14.70;99.90
46890;DHT22;32625;51.080;16.970;2022-09-25T10:14:58;14.60;99.90
46890;DHT22;32625;51.080;16.970;2022-09-25T10:17:28;14.50;99.90
46890;DHT22;32625;51.080;16.970;2022-09-25T10:20:02;14.70;99.90
46890;DHT22;32625;51.080;16.970;2022-09-25T10:22:37;14.80;99.90
46890;DHT22;32625;51.080;16.970;2022-09-25T10:25:06;14.80;99.90
46890;DHT22;32625;51.080;16.970;2022-09-25T10:27:36;14.70;99.90
46890;DHT22;32625;51.080;16.970;2022-09-25T10:33:10;14.80;99.90
46890;DHT22;32625;51.080;16.970;2022-09-25T10:35:44;15.00;99.90
46890;DHT22;32625;51.080;16.970;2022-09-25T10:43:29;15.30;99.90
46890;DHT22;32625;51.080;16.970;2022-09-25T10:46:12;15.20;99.90
46890;DHT22;32625;51.080;16.970;2022-09-25T10:48:41;15.20;99.90
46890;DHT22;32625;51.080;16.970;2022-09-25T10:51:28;15.30;99.90
46890;DHT22;32625;51.080;16.970;2022-09-25T10:54:11;15.60;99.90
46890;DHT22;32625;51.080;16.970;2022-09-25T10:56:39;15.70;99.90
46890;DHT22;32625;51.080;16.970;2022-09-25T10:59:18;15.70;99.90
46890;DHT22;32625;51.080;16.970;2022-09-25T11:01:47;15.60;99.90
46890;DHT22;32625;51.080;16.970;2022-09-25T11:04:24;15.70;99.90
46890;DHT22;32625;51.080;16.970;2022-09-25T11:06:55;15.70;99.90
46890;DHT22;32625;51.080;16.970;2022-09-25T11:09:28;15.80;99.90
46890;DHT22;32625;51.080;16.970;2022-09-25T11:14:34;15.90;99.90
46890;DHT22;32625;51.080;16.970;2022-09-25T11:17:04;15.80;99.90
46890;DHT22;32625;51.080;16.970;2022-09-25T11:19:37;15.80;99.90
46890;DHT22;32625;51.080;16.970;2022-09-25T11:22:34;15.80;99.90
46890;DHT22;32625;51.080;16.970;2022-09-25T11:27:35;16.00;99.90
46890;DHT22;32625;51.080;16.970;2022-09-25T11:30:10;16.20;99.90
46890;DHT22;32625;51.080;16.970;2022-09-25T11:32:59;16.10;99.90
46890;DHT22;32625;51.080;16.970;2022-09-25T11:38:43;16.00;99.90
46890;DHT22;32625;51.080;16.970;2022-09-25T11:41:41;16.20;99.90
46890;DHT22;32625;51.080;16.970;2022-09-25T11:44:31;16.20;99.90
46890;DHT22;32625;51.080;16.970;2022-09-25T11:47:27;16.20;99.90
46890;DHT22;32625;51.080;16.970;2022-09-25T11:49:58;16.10;99.90
46890;DHT22;32625;51.080;16.970;2022-09-25T11:55:47;16.00;99.90
46890;DHT22;32625;51.080;16.970;2022-09-25T11:58:30;15.90;99.90
46890;DHT22;32625;51.080;16.970;2022-09-25T12:10:06;16.10;99.90
46890;DHT22;32625;51.080;16.970;2022-09-25T12:21:08;16.30;99.90
46890;DHT22;32625;51.080;16.970;2022-09-25T12:23:49;16.40;99.90
46890;DHT22;32625;51.080;16.970;2022-09-25T12:37:33;16.20;99.90
46890;DHT22;32625;51.080;16.970;2022-09-25T12:40:24;16.10;99.90
46890;DHT22;32625;51.080;16.970;2022-09-25T12:43:11;16.20;99.90
46890;DHT22;32625;51.080;16.970;2022-09-25T12:45:47;16.20;99.90
46890;DHT22;32625;51.080;16.970;2022-09-25T12:48:25;16.40;99.90
46890;DHT22;32625;51.080;16.970;2022-09-25T12:51:19;16.40;99.90
46890;DHT22;32625;51.080;16.970;2022-09-25T12:53:54;16.30;99.90
46890;DHT22;32625;51.080;16.970;2022-09-25T12:59:33;16.20;99.90
46890;DHT22;32625;51.080;16.970;2022-09-25T13:05:39;16.10;99.90
46890;DHT22;32625;51.080;16.970;2022-09-25T13:08:31;16.10;99.90
46890;DHT22;32625;51.080;16.970;2022-09-25T13:14:31;16.00;99.90
46890;DHT22;32625;51.080;16.970;2022-09-25T13:17:01;16.10;99.90
46890;DHT22;32625;51.080;16.970;2022-09-25T13:19:30;16.10;99.90
46890;DHT22;32625;51.080;16.970;2022-09-25T13:22:05;16.10;99.90
46890;DHT22;32625;51.080;16.970;2022-09-25T13:24:50;16.00;99.90
46890;DHT22;32625;51.080;16.970;2022-09-25T13:27:23;16.00;99.90
46890;DHT22;32625;51.080;16.970;2022-09-25T13:29:57;16.10;99.90
46890;DHT22;32625;51.080;16.970;2022-09-25T13:32:29;16.00;99.90
46890;DHT22;32625;51.080;16.970;2022-09-25T13:35:06;15.90;99.90
46890;DHT22;32625;51.080;16.970;2022-09-25T13:37:35;15.90;99.90
46890;DHT22;32625;51.080;16.970;2022-09-25T13:40:36;15.80;99.90
46890;DHT22;32625;51.080;16.970;2022-09-25T13:45:43;15.90;99.90
46890;DHT22;32625;51.080;16.970;2022-09-25T13:48:12;15.90;99.90
46890;DHT22;32625;51.080;16.970;2022-09-25T13:53:58;15.80;99.90
46890;DHT22;32625;51.080;16.970;2022-09-25T13:56:47;15.70;99.90
46890;DHT22;32625;51.080;16.970;2022-09-25T14:01:56;15.70;99.90
46890;DHT22;32625;51.080;16.970;2022-09-25T14:04:32;15.70;99.90
46890;DHT22;32625;51.080;16.970;2022-09-25T14:07:18;15.70;99.90
46890;DHT22;32625;51.080;16.970;2022-09-25T14:09:50;15.70;99.90
46890;DHT22;32625;51.080;16.970;2022-09-25T14:12:26;15.60;99.90
46890;DHT22;32625;51.080;16.970;2022-09-25T14:14:59;15.60;99.90
46890;DHT22;32625;51.080;16.970;2022-09-25T14:17:29;15.60;99.90
46890;DHT22;32625;51.080;16.970;2022-09-25T14:20:00;15.50;99.90
46890;DHT22;32625;51.080;16.970;2022-09-25T14:24:59;15.50;99.90
46890;DHT22;32625;51.080;16.970;2022-09-25T14:27:27;15.50;99.90
46890;DHT22;32625;51.080;16.970;2022-09-25T14:30:03;15.50;99.90
46890;DHT22;32625;51.080;16.970;2022-09-25T14:41:13;15.30;99.90
46890;DHT22;32625;51.080;16.970;2022-09-25T14:43:54;15.30;99.90
46890;DHT22;32625;51.080;16.970;2022-09-25T14:46:24;15.30;99.90
46890;DHT22;32625;51.080;16.970;2022-09-25T14:48:56;15.30;99.90
46890;DHT22;32625;51.080;16.970;2022-09-25T14:51:38;15.30;99.90
46890;DHT22;32625;51.080;16.970;2022-09-25T14:54:08;15.40;99.90
46890;DHT22;32625;51.080;16.970;2022-09-25T14:56:38;15.40;99.90
46890;DHT22;32625;51.080;16.970;2022-09-25T14:59:12;15.40;99.90
46890;DHT22;32625;51.080;16.970;2022-09-25T15:01:48;15.40;99.90
46890;DHT22;32625;51.080;16.970;2022-09-25T15:04:30;15.40;99.90
46890;DHT22;32625;51.080;16.970;2022-09-25T15:07:08;15.30;99.90
46890;DHT22;32625;51.080;16.970;2022-09-25T15:09:45;15.30;99.90
46890;DHT22;32625;51.080;16.970;2022-09-25T15:17:23;15.20;99.90
46890;DHT22;32625;51.080;16.970;2022-09-25T15:19:54;15.10;99.90
46890;DHT22;32625;51.080;16.970;2022-09-25T15:22:31;15.10;99.90
46890;DHT22;32625;51.080;16.970;2022-09-25T15:25:02;15.00;99.90
46890;DHT22;32625;51.080;16.970;2022-09-25T15:27:31;15.00;99.90
46890;DHT22;32625;51.080;16.970;2022-09-25T15:29:59;15.10;99.90
46890;DHT22;32625;51.080;16.970;2022-09-25T15:32:38;15.00;99.90
46890;DHT22;32625;51.080;16.970;2022-09-25T15:37:42;15.00;99.90
46890;DHT22;32625;51.080;16.970;2022-09-25T15:42:44;15.00;99.90
46890;DHT22;32625;51.080;16.970;2022-09-25T15:50:47;14.90;99.90
46890;DHT22;32625;51.080;16.970;2022-09-25T15:53:21;14.90;99.90
46890;DHT22;32625;51.080;16.970;2022-09-25T15:55:50;14.90;99.90
46890;DHT22;32625;51.080;16.970;2022-09-25T15:58:26;14.90;99.90
46890;DHT22;32625;51.080;16.970;2022-09-25T16:00:59;14.80;99.90
46890;DHT22;32625;51.080;16.970;2022-09-25T16:03:52;14.80;99.90
46890;DHT22;32625;51.080;16.970;2022-09-25T16:06:55;14.80;99.90
46890;DHT22;32625;51.080;16.970;2022-09-25T16:09:28;14.80;99.90
46890;DHT22;32625;51.080;16.970;2022-09-25T16:14:46;14.80;99.90
46890;DHT22;32625;51.080;16.970;2022-09-25T16:17:29;14.70;99.90
46890;DHT22;32625;51.080;16.970;2022-09-25T16:22:44;14.70;99.90
46890;DHT22;32625;51.080;16.970;2022-09-25T16:25:17;14.70;99.90
46890;DHT22;32625;51.080;16.970;2022-09-25T16:27:47;14.70;99.90
46890;DHT22;32625;51.080;16.970;2022-09-25T16:30:20;14.60;99.90
46890;DHT22;32625;51.080;16.970;2022-09-25T16:32:50;14.60;99.90
46890;DHT22;32625;51.080;16.970;2022-09-25T16:35:53;14.60;99.90
46890;DHT22;32625;51.080;16.970;2022-09-25T16:38:34;14.50;99.90
46890;DHT22;32625;51.080;16.970;2022-09-25T16:43:35;14.40;99.90
46890;DHT22;32625;51.080;16.970;2022-09-25T16:46:17;14.40;99.90
46890;DHT22;32625;51.080;16.970;2022-09-25T16:49:00;14.40;99.90
46890;DHT22;32625;51.080;16.970;2022-09-25T16:51:28;14.40;99.90
46890;DHT22;32625;51.080;16.970;2022-09-25T16:53:59;14.30;99.90
46890;DHT22;32625;51.080;16.970;2022-09-25T16:56:29;14.30;99.90
46890;DHT22;32625;51.080;16.970;2022-09-25T16:58:57;14.30;99.90
46890;DHT22;32625;51.080;16.970;2022-09-25T17:01:26;14.20;99.90
46890;DHT22;32625;51.080;16.970;2022-09-25T17:03:54;14.20;99.90
46890;DHT22;32625;51.080;16.970;2022-09-25T17:06:26;14.20;99.90
46890;DHT22;32625;51.080;16.970;2022-09-25T17:08:57;14.20;99.90
46890;DHT22;32625;51.080;16.970;2022-09-25T17:11:25;14.20;99.90
46890;DHT22;32625;51.080;16.970;2022-09-25T17:13:52;14.10;99.90
46890;DHT22;32625;51.080;16.970;2022-09-25T17:16:20;14.20;99.90
46890;DHT22;32625;51.080;16.970;2022-09-25T17:18:47;14.10;99.90
46890;DHT22;32625;51.080;16.970;2022-09-25T17:21:17;14.10;99.90
46890;DHT22;32625;51.080;16.970;2022-09-25T17:23:45;14.10;99.90
46890;DHT22;32625;51.080;16.970;2022-09-25T17:26:22;14.10;99.90
46890;DHT22;32625;51.080;16.970;2022-09-25T17:28:50;14.10;99.90
46890;DHT22;32625;51.080;16.970;2022-09-25T17:31:19;14.10;99.90
46890;DHT22;32625;51.080;16.970;2022-09-25T17:33:48;14.00;99.90
46890;DHT22;32625;51.080;16.970;2022-09-25T17:36:16;14.00;99.90
46890;DHT22;32625;51.080;16.970;2022-09-25T17:38:43;14.10;99.90
46890;DHT22;32625;51.080;16.970;2022-09-25T17:41:31;14.00;99.90
46890;DHT22;32625;51.080;16.970;2022-09-25T17:43:59;14.00;99.90
46890;DHT22;32625;51.080;16.970;2022-09-25T17:46:26;14.00;99.90
46890;DHT22;32625;51.080;16.970;2022-09-25T17:48:53;14.00;99.90
46890;DHT22;32625;51.080;16.970;2022-09-25T17:51:25;14.00;99.90
46890;DHT22;32625;51.080;16.970;2022-09-25T17:53:53;14.00;99.90
46890;DHT22;32625;51.080;16.970;2022-09-25T17:56:25;14.00;99.90
46890;DHT22;32625;51.080;16.970;2022-09-25T17:58:56;14.00;99.90
46890;DHT22;32625;51.080;16.970;2022-09-25T18:01:25;14.00;99.90
46890;DHT22;32625;51.080;16.970;2022-09-25T18:03:57;14.00;99.90
46890;DHT22;32625;51.080;16.970;2022-09-25T18:06:26;14.00;99.90
46890;DHT22;32625;51.080;16.970;2022-09-25T18:08:53;14.00;99.90
46890;DHT22;32625;51.080;16.970;2022-09-25T18:11:23;13.90;99.90
46890;DHT22;32625;51.080;16.970;2022-09-25T18:13:54;13.90;99.90
46890;DHT22;32625;51.080;16.970;2022-09-25T18:16:29;13.90;99.90
46890;DHT22;32625;51.080;16.970;2022-09-25T18:18:57;13.90;99.90
46890;DHT22;32625;51.080;16.970;2022-09-25T18:21:43;13.90;99.90
46890;DHT22;32625;51.080;16.970;2022-09-25T18:24:29;13.90;99.90
46890;DHT22;32625;51.080;16.970;2022-09-25T18:26:57;13.90;99.90
46890;DHT22;32625;51.080;16.970;2022-09-25T18:29:24;13.90;99.90
46890;DHT22;32625;51.080;16.970;2022-09-25T18:31:52;13.90;99.90
46890;DHT22;32625;51.080;16.970;2022-09-25T18:34:19;13.90;99.90
46890;DHT22;32625;51.080;16.970;2022-09-25T18:36:48;13.90;99.90
46890;DHT22;32625;51.080;16.970;2022-09-25T18:39:15;13.80;99.90
46890;DHT22;32625;51.080;16.970;2022-09-25T18:41:46;13.90;99.90
46890;DHT22;32625;51.080;16.970;2022-09-25T18:44:14;13.90;99.90
46890;DHT22;32625;51.080;16.970;2022-09-25T18:46:44;13.90;99.90
46890;DHT22;32625;51.080;16.970;2022-09-25T18:49:11;13.80;99.90
46890;DHT22;32625;51.080;16.970;2022-09-25T18:51:39;13.80;99.90
46890;DHT22;32625;51.080;16.970;2022-09-25T18:54:06;13.90;99.90